Time;durP1;ratioP1;P1;durP2;ratioP2;P2;SDS_P1;SDS_P2;PMS_P1;PMS_P2;Temp;Humidity;BMP_temperature;BMP_pressure;BME280_temperature;BME280_humidity;BME280_pressure;Samples;Min_cycle;Max_cycle;Signal;HPM_P1;HPM_P2
2023/08/01 00:01:03;;;;;;;8.00;6.10;;;;;;;23.20;68.04;98824.05;79635;1291;3013113;-66
2023/08/01 00:03:31;;;;;;;11.30;7.10;;;;;;;23.17;68.29;98825.43;78366;1293;3028080;-67
2023/08/01 00:05:58;;;;;;;9.60;6.40;;;;;;;23.18;68.05;98828.73;79873;1294;3013489;-67
2023/08/01 00:08:24;;;;;;;11.30;7.00;;;;;;;23.17;68.38;98827.11;79638;1294;3012942;-66
2023/08/01 00:10:52;;;;;;;9.00;4.90;;;;;;;23.18;68.31;98824.98;78409;1291;3026726;-65
2023/08/01 00:13:19;;;;;;;6.60;4.90;;;;;;;23.72;67.63;98829.15;79799;1294;3013618;-66
2023/08/01 00:15:45;;;;;;;13.10;6.50;;;;;;;24.14;66.19;98829.98;79748;1290;3011890;-66
2023/08/01 00:18:13;;;;;;;10.10;6.60;;;;;;;24.21;65.96;98829.44;78421;1293;3026198;-66
2023/08/01 00:20:40;;;;;;;14.30;7.30;;;;;;;24.03;66.54;98828.50;79679;1294;3012976;-66
2023/08/01 00:23:06;;;;;;;17.10;8.50;;;;;;;23.91;67.03;98831.88;79654;1292;3011795;-66
2023/08/01 00:25:34;;;;;;;20.70;9.10;;;;;;;23.77;67.68;98828.89;78369;1291;3026059;-64
2023/08/01 00:28:00;;;;;;;17.40;8.80;;;;;;;23.42;69.17;98833.42;79792;1291;3013039;-66
2023/08/01 00:30:27;;;;;;;19.40;10.80;;;;;;;23.15;70.38;98826.80;79581;1291;3012074;-66
2023/08/01 00:32:55;;;;;;;22.00;10.40;;;;;;;22.95;71.85;98825.94;78451;1294;3028167;-66
2023/08/01 00:35:21;;;;;;;18.20;10.00;;;;;;;22.72;73.13;98825.42;79655;1293;3013096;-67
2023/08/01 00:37:48;;;;;;;11.70;7.60;;;;;;;22.55;74.15;98822.75;79682;1294;3011555;-67
2023/08/01 00:40:17;;;;;;;16.30;7.10;;;;;;;22.96;72.37;98819.98;78392;1294;3028470;-64
2023/08/01 00:42:44;;;;;;;9.40;5.00;;;;;;;23.15;70.10;98822.10;79691;1289;3013105;-73
2023/08/01 00:45:10;;;;;;;10.30;4.90;;;;;;;23.13;69.97;98823.91;79855;1291;3013196;-72
2023/08/01 00:47:38;;;;;;;6.90;5.10;;;;;;;23.03;69.79;98821.33;78603;1293;3050331;-74
2023/08/01 00:50:05;;;;;;;7.10;5.30;;;;;;;22.82;70.46;98824.19;79606;1295;3012859;-72
2023/08/01 00:52:32;;;;;;;5.10;4.40;;;;;;;22.68;70.48;98820.19;79666;1295;3011921;-72
2023/08/01 00:55:00;;;;;;;5.80;4.10;;;;;;;22.51;70.56;98824.49;78555;1294;3029924;-66
2023/08/01 00:57:26;;;;;;;6.00;4.30;;;;;;;22.23;71.55;98822.25;79625;1292;3013340;-70
2023/08/01 00:59:53;;;;;;;7.60;4.70;;;;;;;22.02;72.49;98820.88;79774;1294;3013024;-69
2023/08/01 01:02:20;;;;;;;10.20;5.30;;;;;;;21.82;73.60;98824.34;78342;1292;3026132;-65
2023/08/01 01:04:47;;;;;;;6.40;4.70;;;;;;;21.70;74.43;98831.11;79681;1289;3012715;-74
2023/08/01 01:07:15;;;;;;;6.80;3.70;;;;;;;21.53;75.64;98827.69;79850;1296;3011927;-75
2023/08/01 01:09:43;;;;;;;6.10;3.90;;;;;;;21.98;74.54;98828.51;78597;1295;3052809;-75
2023/08/01 01:12:09;;;;;;;6.50;4.20;;;;;;;22.15;73.51;98823.08;79833;1294;3013034;-74
2023/08/01 01:14:35;;;;;;;8.70;5.40;;;;;;;22.21;73.25;98824.11;79676;1296;3013389;-72
2023/08/01 01:17:04;;;;;;;6.60;5.00;;;;;;;22.02;73.75;98820.17;78606;1295;3025601;-76
2023/08/01 01:19:31;;;;;;;9.10;5.60;;;;;;;21.95;74.10;98821.14;79825;1294;3014207;-72
2023/08/01 01:21:57;;;;;;;8.00;5.70;;;;;;;21.85;74.34;98822.22;79584;1295;3011547;-75
2023/08/01 01:24:26;;;;;;;9.50;6.90;;;;;;;21.62;75.62;98824.73;78497;1294;3051670;-72
2023/08/01 01:26:53;;;;;;;11.20;7.10;;;;;;;21.42;76.36;98824.69;79770;1291;3012987;-67
2023/08/01 01:29:23;;;;;;;12.40;6.50;;;;;;;21.33;77.08;98824.83;79364;1290;3011758;-72
2023/08/01 01:31:50;;;;;;;10.60;6.10;;;;;;;21.87;75.42;98819.99;79758;1294;3020742;-73
2023/08/01 01:34:17;;;;;;;11.20;7.20;;;;;;;22.34;73.27;98824.67;79889;1291;3013113;-64
2023/08/01 01:36:44;;;;;;;11.80;7.70;;;;;;;22.33;72.85;98824.49;78758;1294;3027731;-76
2023/08/01 01:39:11;;;;;;;12.20;7.50;;;;;;;22.09;73.60;98824.52;79805;1292;3013617;-69
2023/08/01 01:41:37;;;;;;;9.10;7.00;;;;;;;21.81;74.61;98823.72;79599;1291;3011764;-64
2023/08/01 01:44:05;;;;;;;10.60;7.80;;;;;;;21.40;76.51;98822.98;78327;1295;3028471;-73
2023/08/01 01:46:32;;;;;;;9.80;7.70;;;;;;;21.22;77.98;98818.61;79588;1297;3013014;-71
2023/08/01 01:48:59;;;;;;;8.40;5.90;;;;;;;21.17;77.93;98826.63;79685;1294;3013051;-72
2023/08/01 01:51:26;;;;;;;11.60;6.40;;;;;;;21.44;77.46;98825.48;78521;1295;3026403;-76
2023/08/01 01:53:53;;;;;;;8.80;7.10;;;;;;;21.67;76.30;98823.17;79611;1291;3013299;-72
2023/08/01 01:56:20;;;;;;;14.50;7.70;;;;;;;21.52;76.79;98819.29;79666;1294;3011917;-67
2023/08/01 01:58:47;;;;;;;9.10;6.90;;;;;;;21.17;78.25;98823.60;78374;1297;3026172;-67
2023/08/01 02:01:14;;;;;;;16.80;7.40;;;;;;;21.00;79.25;98820.16;79578;1291;3019337;-72
2023/08/01 02:03:41;;;;;;;12.80;7.10;;;;;;;20.79;80.42;98819.39;79761;1294;3012386;-67
2023/08/01 02:06:08;;;;;;;8.50;5.20;;;;;;;20.68;81.06;98816.56;78580;1290;3029130;-72
2023/08/01 02:08:35;;;;;;;9.00;5.70;;;;;;;21.10;79.65;98816.73;79792;1294;3013628;-72
2023/08/01 02:11:01;;;;;;;9.90;6.50;;;;;;;21.35;78.23;98814.99;79653;1294;3013436;-71
2023/08/01 02:13:31;;;;;;;7.60;5.50;;;;;;;21.31;78.22;98812.55;78456;1294;3027447;-74
2023/08/01 02:15:58;;;;;;;11.20;7.20;;;;;;;21.24;78.22;98812.33;79751;1290;3014064;-67
2023/08/01 02:18:24;;;;;;;11.40;7.90;;;;;;;21.08;79.07;98812.77;79617;1294;3011689;-69
2023/08/01 02:20:52;;;;;;;10.40;6.80;;;;;;;20.84;80.24;98809.77;78428;1297;3053623;-67
2023/08/01 02:23:19;;;;;;;10.30;5.50;;;;;;;20.76;80.89;98816.73;79599;1297;3013179;-65
2023/08/01 02:25:46;;;;;;;8.20;5.60;;;;;;;21.16;79.21;98811.41;79577;1291;3013266;-69
2023/08/01 02:28:14;;;;;;;10.70;6.30;;;;;;;21.50;77.68;98808.94;78340;1294;3049616;-75
2023/08/01 02:30:41;;;;;;;10.10;6.30;;;;;;;21.40;77.46;98802.50;79682;1290;3013746;-75
2023/08/01 02:33:08;;;;;;;7.70;6.50;;;;;;;21.19;78.36;98804.89;79712;1292;3011618;-67
2023/08/01 02:35:36;;;;;;;7.20;6.00;;;;;;;21.03;79.14;98801.16;78397;1295;3028669;-68
2023/08/01 02:38:03;;;;;;;8.50;6.30;;;;;;;20.94;79.45;98800.48;79771;1295;3013533;-76
2023/08/01 02:40:30;;;;;;;5.30;4.00;;;;;;;20.80;80.39;98807.20;79604;1292;3013615;-77
2023/08/01 02:42:58;;;;;;;8.40;4.40;;;;;;;21.24;79.02;98805.58;78420;1289;3049482;-69
2023/08/01 02:45:25;;;;;;;6.90;5.20;;;;;;;21.60;77.05;98805.83;79669;1294;3013599;-69
2023/08/01 02:47:51;;;;;;;11.70;5.70;;;;;;;21.65;76.74;98809.17;79666;1294;3011624;-67
2023/08/01 02:50:19;;;;;;;8.90;5.90;;;;;;;21.41;77.72;98803.95;78418;1294;3028163;-74
2023/08/01 02:52:45;;;;;;;7.30;5.80;;;;;;;21.37;77.83;98805.28;79561;1292;3018235;-69
2023/08/01 02:55:12;;;;;;;9.70;6.00;;;;;;;21.27;78.03;98804.89;79708;1294;3011977;-70
2023/08/01 02:57:40;;;;;;;8.50;4.10;;;;;;;21.12;78.92;98802.09;78571;1291;3024766;-68
2023/08/01 03:00:11;;;;;;;8.10;4.20;;;;;;;21.61;77.47;98801.17;79638;1294;3015251;-71
2023/08/01 03:02:39;;;;;;;8.00;4.90;;;;;;;22.12;75.57;98798.37;78349;1294;3053953;-71
2023/08/01 03:05:07;;;;;;;12.90;5.70;;;;;;;22.16;74.79;98800.37;79681;1294;3018409;-68
2023/08/01 03:07:34;;;;;;;10.40;5.90;;;;;;;21.99;75.53;98805.52;79665;1291;3011693;-65
2023/08/01 03:10:02;;;;;;;8.70;5.90;;;;;;;21.87;75.71;98808.52;78403;1294;3057637;-66
2023/08/01 03:12:29;;;;;;;9.10;6.90;;;;;;;21.77;76.10;98810.79;79619;1289;3013088;-69
2023/08/01 03:14:55;;;;;;;12.80;8.00;;;;;;;21.70;76.03;98810.75;79699;1290;3011804;-71
2023/08/01 03:17:23;;;;;;;8.40;5.50;;;;;;;21.60;76.89;98814.02;78428;1294;3028783;-75
2023/08/01 03:19:50;;;;;;;12.30;6.50;;;;;;;22.01;75.99;98812.09;79834;1294;3012856;-72
2023/08/01 03:22:16;;;;;;;12.20;7.90;;;;;;;22.52;74.23;98812.95;79697;1295;3011735;-74
2023/08/01 03:24:44;;;;;;;13.80;9.40;;;;;;;22.65;73.54;98813.84;78625;1291;3025849;-75
2023/08/01 03:27:10;;;;;;;11.60;8.70;;;;;;;22.53;73.60;98813.09;79864;1289;3018831;-75
2023/08/01 03:29:37;;;;;;;15.60;9.40;;;;;;;22.42;73.80;98817.73;79805;1291;3013309;-69
2023/08/01 03:32:05;;;;;;;12.80;9.10;;;;;;;22.25;74.40;98814.61;78663;1294;3027449;-67
2023/08/01 03:34:32;;;;;;;16.60;9.50;;;;;;;22.11;75.21;98817.02;79882;1294;3013925;-72
2023/08/01 03:36:58;;;;;;;13.60;9.10;;;;;;;22.04;75.38;98818.32;79949;1294;3011802;-74
2023/08/01 03:39:26;;;;;;;11.40;6.30;;;;;;;21.99;75.95;98819.50;78644;1292;3026494;-69
2023/08/01 03:41:53;;;;;;;11.30;7.10;;;;;;;22.53;74.85;98817.68;80007;1292;3013254;-73
2023/08/01 03:44:20;;;;;;;13.80;8.10;;;;;;;23.09;72.70;98817.16;80115;1293;3011716;-73
2023/08/01 03:46:48;;;;;;;12.70;8.00;;;;;;;23.19;71.92;98819.18;78859;1295;3026845;-72
2023/08/01 03:49:14;;;;;;;13.40;9.00;;;;;;;23.11;72.26;98824.36;79829;1294;3013450;-67
2023/08/01 03:51:41;;;;;;;17.60;9.90;;;;;;;23.02;72.34;98817.48;79479;1290;3011512;-70
2023/08/01 03:54:08;;;;;;;11.10;9.00;;;;;;;22.92;72.54;98818.83;78762;1295;3028373;-69
2023/08/01 03:56:35;;;;;;;14.50;9.10;;;;;;;22.80;73.04;98818.35;79978;1294;3019278;-74
2023/08/01 03:59:04;;;;;;;14.70;9.50;;;;;;;22.72;73.46;98819.86;79646;1294;3011707;-71
2023/08/01 04:01:32;;;;;;;8.60;6.30;;;;;;;22.66;73.99;98817.33;78301;1294;3052501;-74
2023/08/01 04:03:58;;;;;;;13.30;7.30;;;;;;;23.16;72.81;98813.98;79816;1294;3020417;-75
2023/08/01 04:06:25;;;;;;;9.80;7.90;;;;;;;23.65;70.97;98816.47;79864;1294;3012083;-75
2023/08/01 04:08:52;;;;;;;12.60;8.60;;;;;;;23.70;70.76;98816.05;78502;1294;3026041;-74
2023/08/01 04:11:19;;;;;;;16.40;9.00;;;;;;;23.56;71.18;98811.65;79902;1292;3012980;-72
2023/08/01 04:13:45;;;;;;;18.80;9.90;;;;;;;23.40;71.62;98813.27;80115;1291;3011390;-74
2023/08/01 04:16:13;;;;;;;13.20;9.50;;;;;;;23.28;72.18;98816.21;78894;1294;3026837;-75
2023/08/01 04:18:40;;;;;;;18.50;9.80;;;;;;;23.13;73.18;98821.27;80234;1294;3013158;-75
2023/08/01 04:21:07;;;;;;;20.50;10.20;;;;;;;23.00;74.01;98817.64;80029;1292;3011813;-79
2023/08/01 04:23:35;;;;;;;20.10;10.10;;;;;;;22.96;74.26;98824.05;78721;1292;3055976;-67
2023/08/01 04:26:05;;;;;;;11.50;8.10;;;;;;;22.97;74.34;98822.84;79987;1294;3013051;-66
2023/08/01 04:28:34;;;;;;;10.90;7.10;;;;;;;23.61;72.43;98820.88;79278;1295;3012892;-72
2023/08/01 04:31:01;;;;;;;12.30;7.80;;;;;;;24.19;70.30;98822.77;79803;1294;3012681;-70
2023/08/01 04:33:27;;;;;;;12.40;9.10;;;;;;;24.35;69.38;98822.17;79843;1294;3011426;-72
2023/08/01 04:35:55;;;;;;;15.60;9.00;;;;;;;24.27;69.35;98820.59;78527;1294;3026897;-74
2023/08/01 04:38:22;;;;;;;13.90;8.90;;;;;;;24.21;69.65;98819.58;79855;1295;3013079;-72
2023/08/01 04:40:48;;;;;;;13.80;9.00;;;;;;;24.17;69.29;98821.23;79811;1292;3011480;-77
2023/08/01 04:43:16;;;;;;;10.90;8.10;;;;;;;24.09;69.44;98819.54;78721;1294;3025938;-70
2023/08/01 04:45:42;;;;;;;15.10;8.60;;;;;;;24.04;69.71;98821.81;79734;1294;3012801;-77
2023/08/01 04:48:09;;;;;;;16.40;8.70;;;;;;;24.00;70.12;98822.42;79883;1294;3011642;-69
2023/08/01 04:50:37;;;;;;;12.10;8.40;;;;;;;24.00;70.04;98829.05;78580;1294;3026255;-72
2023/08/01 04:53:03;;;;;;;12.20;8.90;;;;;;;24.05;69.84;98833.16;79775;1291;3013059;-66
2023/08/01 04:55:30;;;;;;;12.00;8.40;;;;;;;24.08;69.84;98830.97;79660;1294;3011681;-70
2023/08/01 04:57:58;;;;;;;9.40;6.20;;;;;;;24.12;69.78;98833.23;78480;1291;3028400;-71
2023/08/01 05:00:24;;;;;;;10.40;7.40;;;;;;;24.69;68.63;98828.45;79848;1294;3014058;-70
2023/08/01 05:02:51;;;;;;;12.80;8.30;;;;;;;25.24;66.88;98826.45;79800;1293;3011592;-70
2023/08/01 05:05:19;;;;;;;12.90;8.80;;;;;;;25.50;66.46;98828.28;78753;1294;3026856;-75
2023/08/01 05:07:45;;;;;;;14.60;9.40;;;;;;;25.52;65.95;98826.46;79993;1292;3013285;-75
2023/08/01 05:10:12;;;;;;;23.50;9.50;;;;;;;25.40;66.29;98826.55;79898;1295;3013625;-74
2023/08/01 05:12:40;;;;;;;15.30;9.50;;;;;;;25.31;66.63;98828.95;78632;1292;3027496;-76
2023/08/01 05:15:07;;;;;;;20.80;10.70;;;;;;;25.17;67.64;98832.00;79911;1294;3013088;-74
2023/08/01 05:17:34;;;;;;;14.00;10.30;;;;;;;25.11;68.03;98835.27;80115;1294;3011415;-73
2023/08/01 05:20:04;;;;;;;17.70;10.80;;;;;;;25.08;68.14;98840.80;78738;1292;3026020;-72
2023/08/01 05:22:31;;;;;;;19.60;11.00;;;;;;;25.06;68.54;98842.15;79931;1295;3011473;-71
2023/08/01 05:24:57;;;;;;;18.80;10.70;;;;;;;25.04;68.07;98837.61;79842;1294;3012014;-70
2023/08/01 05:27:25;;;;;;;16.10;10.50;;;;;;;25.02;68.28;98833.59;78626;1295;3053848;-72
2023/08/01 05:29:51;;;;;;;17.70;10.60;;;;;;;24.97;68.40;98826.70;79971;1296;3013784;-74
2023/08/01 05:32:18;;;;;;;16.90;8.40;;;;;;;24.94;69.08;98825.25;80085;1294;3012870;-74
2023/08/01 05:34:46;;;;;;;18.50;9.20;;;;;;;25.59;67.69;98826.16;78617;1295;3026496;-73
2023/08/01 05:37:12;;;;;;;18.90;9.40;;;;;;;26.19;65.13;98831.52;79883;1294;3018553;-72
2023/08/01 05:39:39;;;;;;;16.60;10.90;;;;;;;26.40;64.96;98831.36;79786;1293;3012743;-75
2023/08/01 05:42:09;;;;;;;23.10;10.70;;;;;;;26.41;64.64;98832.58;78524;1294;3025901;-70
2023/08/01 05:44:36;;;;;;;18.40;10.90;;;;;;;26.24;64.59;98832.20;79866;1294;3013351;-76
2023/08/01 05:47:05;;;;;;;17.90;11.00;;;;;;;26.12;65.05;98833.84;79261;1297;3011793;-72
2023/08/01 05:49:31;;;;;;;22.90;11.90;;;;;;;25.99;65.41;98834.25;79896;1297;3015798;-73
2023/08/01 05:51:58;;;;;;;21.50;12.10;;;;;;;25.90;65.70;98828.50;79960;1292;3011988;-72
2023/08/01 05:54:26;;;;;;;19.20;10.70;;;;;;;25.83;65.42;98832.15;78638;1294;3026067;-71
2023/08/01 05:56:53;;;;;;;20.20;11.10;;;;;;;25.76;65.50;98830.20;79957;1298;3013835;-73
2023/08/01 05:59:20;;;;;;;18.20;9.90;;;;;;;25.72;65.74;98832.15;79715;1293;3011755;-73
2023/08/01 06:01:47;;;;;;;19.00;10.10;;;;;;;25.71;65.21;98831.89;78774;1295;3027458;-74
2023/08/01 06:04:15;;;;;;;22.30;9.20;;;;;;;25.68;64.92;98833.39;80032;1296;3012882;-74
2023/08/01 06:06:43;;;;;;;26.30;9.50;;;;;;;25.66;64.93;98828.75;79790;1292;3011932;-73
2023/08/01 06:09:11;;;;;;;19.50;8.90;;;;;;;25.72;64.52;98829.54;78515;1293;3056497;-73
2023/08/01 06:11:38;;;;;;;21.20;8.60;;;;;;;25.77;64.49;98835.05;79763;1291;3018747;-74
2023/08/01 06:14:04;;;;;;;15.20;8.40;;;;;;;25.82;63.95;98830.61;79763;1292;3011805;-76
2023/08/01 06:16:32;;;;;;;13.50;8.00;;;;;;;25.87;63.32;98831.95;78541;1297;3025828;-75
2023/08/01 06:18:59;;;;;;;12.40;7.80;;;;;;;25.93;63.02;98835.62;79871;1292;3013371;-75
2023/08/01 06:21:25;;;;;;;15.60;8.10;;;;;;;26.05;63.09;98837.27;79864;1295;3013575;-75
2023/08/01 06:23:56;;;;;;;13.30;7.10;;;;;;;26.16;62.67;98835.66;78582;1293;3028676;-75
2023/08/01 06:26:22;;;;;;;12.00;7.80;;;;;;;26.22;62.12;98832.41;79734;1292;3012469;-75
2023/08/01 06:28:53;;;;;;;10.00;6.30;;;;;;;26.28;61.14;98835.38;78670;1291;3025935;-73
2023/08/01 06:31:20;;;;;;;12.10;6.50;;;;;;;26.36;59.99;98836.07;79740;1295;3013802;-75
2023/08/01 06:33:46;;;;;;;17.70;7.30;;;;;;;26.46;59.80;98842.30;79740;1294;3011582;-74
2023/08/01 06:36:16;;;;;;;14.40;6.70;;;;;;;26.53;60.07;98843.73;78582;1295;3068544;-73
2023/08/01 06:38:43;;;;;;;18.20;7.80;;;;;;;26.52;59.73;98838.26;79748;1295;3013503;-76
2023/08/01 06:41:10;;;;;;;14.80;8.30;;;;;;;26.54;60.31;98839.52;79731;1294;3011597;-73
2023/08/01 06:43:38;;;;;;;22.50;8.40;;;;;;;26.66;60.01;98841.31;78565;1294;3053684;-75
2023/08/01 06:46:05;;;;;;;20.60;9.00;;;;;;;26.73;60.24;98842.89;79884;1293;3013194;-78
2023/08/01 06:48:34;;;;;;;21.90;8.40;;;;;;;26.76;60.81;98841.18;79808;1291;3011142;-77
2023/08/01 06:51:05;;;;;;;17.50;8.40;;;;;;;26.84;60.97;98843.10;78691;1295;3068683;-77
2023/08/01 06:53:32;;;;;;;20.70;8.10;;;;;;;26.89;60.92;98840.20;79741;1297;3012858;-76
2023/08/01 06:55:59;;;;;;;16.90;7.70;;;;;;;26.85;60.24;98845.91;79898;1291;3011793;-77
2023/08/01 06:58:27;;;;;;;20.80;8.10;;;;;;;26.85;60.31;98843.91;78490;1292;3054229;-75
2023/08/01 07:00:57;;;;;;;14.20;7.50;;;;;;;26.83;59.87;98845.39;79675;1298;3014312;-75
2023/08/01 07:03:25;;;;;;;14.40;7.60;;;;;;;26.83;60.25;98839.58;78287;1299;3027101;-75
2023/08/01 07:05:53;;;;;;;21.60;8.40;;;;;;;26.83;60.51;98834.77;79923;1292;3021349;-75
2023/08/01 07:08:21;;;;;;;23.70;8.40;;;;;;;26.86;60.61;98838.52;79942;1292;3011895;-77
2023/08/01 07:10:49;;;;;;;21.50;8.00;;;;;;;26.92;60.55;98835.09;78467;1295;3058147;-75
2023/08/01 07:13:16;;;;;;;22.20;8.30;;;;;;;27.02;60.48;98832.48;79793;1291;3018712;-76
2023/08/01 07:15:44;;;;;;;15.30;8.50;;;;;;;27.08;60.50;98831.70;79743;1292;3011579;-75
2023/08/01 07:18:13;;;;;;;21.70;7.90;;;;;;;27.14;60.52;98831.55;78664;1294;3052207;-76
2023/08/01 07:20:40;;;;;;;24.60;8.40;;;;;;;27.22;59.93;98828.38;79777;1298;3013638;-74
2023/08/01 07:23:08;;;;;;;20.50;7.90;;;;;;;27.31;59.66;98830.10;79871;1291;3011516;-79
2023/08/01 07:25:36;;;;;;;14.70;7.20;;;;;;;27.41;58.71;98831.84;78547;1296;3057406;-72
2023/08/01 07:28:03;;;;;;;13.40;6.40;;;;;;;27.51;57.33;98830.81;79800;1292;3013436;-75
2023/08/01 07:30:30;;;;;;;14.40;6.40;;;;;;;27.59;56.23;98831.92;80773;1295;3011953;-76
2023/08/01 07:32:58;;;;;;;14.30;6.60;;;;;;;27.69;56.29;98832.39;78567;1297;3052594;-76
2023/08/01 07:35:24;;;;;;;15.10;7.00;;;;;;;27.72;56.51;98832.37;79813;1292;3013019;-73
2023/08/01 07:37:51;;;;;;;16.80;6.80;;;;;;;27.77;56.72;98834.77;79777;1297;3011670;-73
2023/08/01 07:40:19;;;;;;;14.00;6.90;;;;;;;27.88;55.92;98834.76;78571;1296;3028385;-73
2023/08/01 07:42:46;;;;;;;12.90;7.20;;;;;;;27.98;55.95;98829.63;79742;1291;3013517;-74
2023/08/01 07:45:13;;;;;;;12.90;6.50;;;;;;;28.04;56.00;98829.44;79854;1291;3011822;-75
2023/08/01 07:47:41;;;;;;;16.00;7.50;;;;;;;28.04;56.16;98827.83;78550;1296;3053438;-73
2023/08/01 07:50:08;;;;;;;20.40;7.00;;;;;;;28.08;55.96;98833.27;79872;1294;3012949;-75
2023/08/01 07:52:36;;;;;;;14.40;6.80;;;;;;;28.18;55.60;98833.58;79718;1298;3011823;-73
2023/08/01 07:55:05;;;;;;;12.10;7.20;;;;;;;28.30;55.03;98834.21;78488;1296;3056908;-75
2023/08/01 07:57:32;;;;;;;12.40;6.10;;;;;;;28.43;54.23;98832.91;79690;1293;3013226;-75
2023/08/01 07:59:59;;;;;;;14.90;6.60;;;;;;;28.57;53.43;98833.40;79704;1292;3011641;-75
2023/08/01 08:02:27;;;;;;;11.80;6.80;;;;;;;28.73;52.85;98835.08;78575;1295;3054414;-77
2023/08/01 08:04:53;;;;;;;10.80;7.40;;;;;;;28.92;52.22;98830.85;79704;1291;3013640;-75
2023/08/01 08:07:20;;;;;;;12.20;7.20;;;;;;;29.10;51.73;98832.67;79691;1291;3011799;-74
2023/08/01 08:09:47;;;;;;;14.10;6.70;;;;;;;29.28;51.47;98826.20;78995;1291;3025987;-74
2023/08/01 08:12:14;;;;;;;14.60;6.40;;;;;;;29.43;50.68;98827.44;79834;1294;3018146;-73
2023/08/01 08:14:41;;;;;;;11.10;6.80;;;;;;;29.54;49.96;98831.80;79699;1291;3013586;-75
2023/08/01 08:17:09;;;;;;;15.10;5.90;;;;;;;29.68;49.69;98831.04;78504;1296;3052697;-73
2023/08/01 08:19:37;;;;;;;19.70;6.80;;;;;;;29.73;48.05;98829.00;79843;1295;3013810;-71
2023/08/01 08:22:04;;;;;;;13.70;6.40;;;;;;;29.77;47.63;98829.75;79725;1297;3011632;-73
2023/08/01 08:24:32;;;;;;;15.90;6.70;;;;;;;29.87;48.15;98828.16;78647;1297;3056527;-72
2023/08/01 08:26:59;;;;;;;10.20;6.20;;;;;;;29.95;48.21;98825.52;79824;1291;3013023;-73
2023/08/01 08:29:25;;;;;;;12.50;6.00;;;;;;;30.05;48.74;98827.17;79815;1292;3013216;-74
2023/08/01 08:31:54;;;;;;;9.90;6.80;;;;;;;30.10;46.81;98823.77;78541;1297;3028537;-74
2023/08/01 08:34:21;;;;;;;15.80;6.20;;;;;;;30.15;47.06;98824.25;80061;1297;3013406;-74
2023/08/01 08:36:47;;;;;;;11.70;5.80;;;;;;;30.24;46.97;98816.49;79857;1294;3011573;-74
2023/08/01 08:39:16;;;;;;;10.20;6.20;;;;;;;30.36;46.87;98820.63;78585;1292;3054892;-73
2023/08/01 08:41:47;;;;;;;9.00;5.50;;;;;;;30.44;46.07;98816.21;79863;1291;3013615;-73
2023/08/01 08:44:20;;;;;;;14.10;5.90;;;;;;;30.44;44.18;98813.13;78759;1294;3050965;-76
2023/08/01 08:46:53;;;;;;;10.60;5.70;;;;;;;30.47;44.01;98812.83;79686;1293;3013279;-75
2023/08/01 08:49:23;;;;;;;12.30;5.80;;;;;;;30.57;44.13;98814.16;78629;1292;3053825;-74
2023/08/01 08:51:49;;;;;;;12.80;5.60;;;;;;;30.69;44.24;98814.18;79739;1292;3011751;-75
2023/08/01 08:54:16;;;;;;;14.80;5.80;;;;;;;30.74;44.81;98811.02;79671;1292;3012168;-73
2023/08/01 08:56:45;;;;;;;16.40;6.10;;;;;;;30.83;44.49;98807.95;78440;1297;3049471;-77
2023/08/01 08:59:11;;;;;;;11.70;5.60;;;;;;;30.92;44.43;98806.13;79808;1292;3012900;-73
2023/08/01 09:01:40;;;;;;;12.90;5.40;;;;;;;30.89;43.86;98809.09;79753;1297;3011513;-76
2023/08/01 09:04:08;;;;;;;12.90;5.30;;;;;;;30.92;43.45;98806.06;78506;1297;3052887;-76
2023/08/01 09:06:37;;;;;;;9.90;4.90;;;;;;;31.02;43.28;98806.89;79847;1293;3013588;-75
2023/08/01 09:09:10;;;;;;;12.10;4.80;;;;;;;31.08;43.56;98807.20;79875;1293;3012051;-75
2023/08/01 09:11:48;;;;;;;13.90;5.10;;;;;;;31.08;42.51;98804.69;78551;1298;3048487;-74
2023/08/01 09:14:16;;;;;;;10.60;4.60;;;;;;;31.16;42.83;98795.45;78552;1291;3052809;-74
2023/08/01 09:16:43;;;;;;;11.10;5.20;;;;;;;31.30;42.93;98794.78;79743;1298;3019809;-73
2023/08/01 09:19:10;;;;;;;14.80;4.80;;;;;;;31.42;42.60;98792.26;79813;1294;3011251;-73
2023/08/01 09:21:38;;;;;;;7.10;4.20;;;;;;;31.50;42.16;98787.50;78823;1291;3027245;-74
2023/08/01 09:24:15;;;;;;;11.20;5.30;;;;;;;31.48;41.49;98785.79;79787;1291;3013172;-75
2023/08/01 09:26:44;;;;;;;11.40;4.40;;;;;;;31.56;41.51;98787.10;78577;1294;3051674;-74
2023/08/01 09:29:11;;;;;;;13.90;4.90;;;;;;;31.64;40.73;98785.75;79861;1294;3012766;-74
2023/08/01 09:31:39;;;;;;;12.90;4.70;;;;;;;31.66;39.92;98787.29;79794;1291;3011989;-75
2023/08/01 09:34:20;;;;;;;8.30;4.00;;;;;;;31.76;40.24;98784.83;78596;1295;3051545;-72
2023/08/01 09:36:48;;;;;;;5.90;4.00;;;;;;;31.76;37.89;98781.73;78458;1296;3069197;-74
2023/08/01 09:39:19;;;;;;;5.20;3.10;;;;;;;31.69;37.31;98775.95;79872;1294;3018654;-75
2023/08/01 09:41:58;;;;;;;7.50;3.60;;;;;;;31.66;37.17;98775.73;78548;1291;3049425;-76
2023/08/01 09:44:27;;;;;;;7.60;3.90;;;;;;;31.68;36.35;98768.96;78647;1291;3054788;-74
2023/08/01 09:46:56;;;;;;;5.80;3.10;;;;;;;31.68;36.81;98762.12;79892;1292;3013431;-76
2023/08/01 09:49:25;;;;;;;6.20;3.80;;;;;;;31.56;37.54;98759.48;79268;1294;3013016;-74
2023/08/01 09:51:51;;;;;;;8.40;3.60;;;;;;;31.46;37.87;98753.84;79803;1294;3012706;-76
2023/08/01 09:54:18;;;;;;;7.90;3.40;;;;;;;31.41;36.27;98748.10;79757;1294;3011831;-74
2023/08/01 09:56:48;;;;;;;6.70;3.10;;;;;;;31.35;35.85;98746.11;78597;1290;3025863;-74
2023/08/01 09:59:23;;;;;;;6.40;3.00;;;;;;;31.30;34.71;98740.73;79762;1292;3011984;-78
2023/08/01 10:01:52;;;;;;;6.20;3.00;;;;;;;31.28;36.10;98739.94;78518;1291;3054434;-75
2023/08/01 10:04:45;;;;;;;7.70;3.10;;;;;;;31.20;36.12;98735.73;79938;1299;3012908;-74
2023/08/01 10:07:13;;;;;;;6.60;3.50;;;;;;;31.14;36.84;98738.98;78571;1295;3052588;-76
2023/08/01 10:09:41;;;;;;;10.00;5.10;;;;;;;31.09;37.32;98735.17;79998;1295;3018746;-73
2023/08/01 10:12:09;;;;;;;6.30;3.60;;;;;;;31.00;38.30;98732.79;79710;1295;3013721;-75
2023/08/01 10:14:36;;;;;;;8.30;4.20;;;;;;;30.92;38.78;98731.17;78507;1296;3057232;-73
2023/08/01 10:17:03;;;;;;;11.10;4.20;;;;;;;30.82;39.63;98728.40;79985;1291;3018582;-74
2023/08/01 10:19:32;;;;;;;7.90;4.60;;;;;;;30.68;40.19;98732.63;79790;1291;3012853;-72
2023/08/01 10:22:01;;;;;;;12.70;4.70;;;;;;;30.54;40.57;98737.95;78513;1297;3052611;-77
2023/08/01 10:24:27;;;;;;;19.50;5.00;;;;;;;30.41;40.78;98750.96;79745;1292;3013485;-73
2023/08/01 10:26:53;;;;;;;12.50;4.90;;;;;;;30.27;40.91;98751.85;79666;1296;3011622;-71
2023/08/01 10:29:21;;;;;;;12.20;5.00;;;;;;;30.07;41.82;98755.23;76181;1295;3026054;-75
2023/08/01 10:31:52;;;;;;;5.90;4.10;;;;;;;29.94;41.02;98762.48;79786;1293;3013440;-66
2023/08/01 10:34:21;;;;;;;13.10;4.90;;;;;;;29.88;41.07;98754.42;78495;1297;3049711;-73
2023/08/01 10:36:55;;;;;;;7.50;4.20;;;;;;;29.81;41.18;98747.38;79906;1294;3013415;-66
2023/08/01 10:39:24;;;;;;;6.20;4.10;;;;;;;29.69;40.49;98749.38;78775;1291;3069021;-71
2023/08/01 10:42:01;;;;;;;10.00;4.00;;;;;;;29.63;41.46;98746.48;79798;1291;3013692;-70
2023/08/01 10:44:31;;;;;;;18.40;5.80;;;;;;;29.55;41.97;98752.30;78691;1291;3051731;-70
2023/08/01 10:46:59;;;;;;;18.60;8.10;;;;;;;29.32;47.31;98761.60;79730;1292;3013497;-71
2023/08/01 10:49:42;;;;;;;22.60;9.70;;;;;;;29.11;49.75;98773.23;79226;1296;3013545;-72
2023/08/01 10:52:29;;;;;;;26.20;10.80;;;;;;;28.67;52.98;98782.92;78784;1293;3053688;-70
2023/08/01 10:55:01;;;;;;;21.40;11.20;;;;;;;28.16;55.20;98788.98;78793;1294;3051706;-71
2023/08/01 10:57:28;;;;;;;13.90;11.10;;;;;;;27.85;56.33;98793.27;79951;1291;3012023;-63
2023/08/01 10:59:57;;;;;;;17.70;10.20;;;;;;;27.53;57.31;98783.13;78586;1291;3050784;-70
2023/08/01 11:02:28;;;;;;;13.40;9.60;;;;;;;27.37;57.89;98775.89;79765;1291;3014020;-68
2023/08/01 11:04:56;;;;;;;15.00;9.40;;;;;;;27.21;58.10;98776.70;78575;1292;3053253;-76
2023/08/01 11:07:23;;;;;;;11.90;8.90;;;;;;;26.97;58.46;98772.87;79784;1297;3012891;-70
2023/08/01 11:09:49;;;;;;;13.90;8.60;;;;;;;26.79;59.08;98787.36;79786;1295;3011765;-69
2023/08/01 11:12:18;;;;;;;21.30;9.40;;;;;;;26.39;61.42;98793.14;78805;1291;3025779;-68